Temp: 4.0°C   Baro: 1026.3mb
  Wind: 2.0mph   Dir: ESE (121°)
  Rain: 0.0mm (0.0mm/hr)
  Solar: 60W/m2  Hum: 97%

Historic data

Bath Spa Weather Station Historical Data
Daily Summary for September 30, 2022 Units:  Metric    English   Both
Daily Weekly Monthly Yearly Custom
  High: Low: Average:
Temperature: 15.2 °C 4.7 °C 10.9 °C
Dew Point: 14.1 °C 3.7 °C 9.4 °C
Humidity: 94% 81% 91%
Wind Speed: 20.3km/h 0km/h 6.8km/h
Wind Gust: 38.6km/h - -
Wind- - WSW
Pressure: 1010.7 hPa 998.5 hPa -
Precipitation: 5.08 mm    
Historical Graphs
 
 
Tabular Data for September 30, 2022
Time Temperature Dew Point Pressure Wind Wind Speed Wind Gust Humidity Rainfall Rate (Hourly) solar
00:09 7 °C 5.6 °C 1010.7 hPa Calm     91% 0 mm 0 W/m2
00:14 6.9 °C 5.5 °C 1010.7 hPa Calm     91% 0 mm 0 W/m2
00:19 6.8 °C 5.4 °C 1010.7 hPa NW 1.3 km/h 3.2 km/h 91% 0 mm 0 W/m2
00:24 6.8 °C 5.4 °C 1010.7 hPa Calm   1.6 km/h 91% 0 mm 0 W/m2
00:29 6.7 °C 5.3 °C 1010.7 hPa Calm   1.6 km/h 91% 0 mm 0 W/m2
00:34 6.7 °C 5.3 °C 1010.7 hPa NW 0.3 km/h 1.6 km/h 91% 0 mm 0 W/m2
00:39 6.7 °C 5.2 °C 1010.4 hPa Calm     91% 0 mm 0 W/m2
00:44 6.6 °C 5.2 °C 1010.7 hPa Calm     91% 0 mm 0 W/m2
00:49 6.5 °C 5.1 °C 1010.7 hPa NW 2.6 km/h 4.8 km/h 91% 0 mm 0 W/m2
00:54 6.6 °C 5.2 °C 1010.7 hPa NW 3.2 km/h 4.8 km/h 91% 0 mm 0 W/m2
00:59 6.6 °C 5.2 °C 1010.4 hPa NW 0.6 km/h 4.8 km/h 91% 0 mm 0 W/m2
01:04 6.6 °C 5.3 °C 1010.4 hPa Calm     91.4% 0 mm 0 W/m2
01:09 6.6 °C 5.3 °C 1010.4 hPa Calm     91.4% 0 mm 0 W/m2
01:14 6.6 °C 5.4 °C 1010.4 hPa Calm     92% 0 mm 0 W/m2
01:19 6.5 °C 5.3 °C 1010.4 hPa Calm     92% 0 mm 0 W/m2
01:24 6.5 °C 5.3 °C 1010.4 hPa Calm   1.6 km/h 92% 0 mm 0 W/m2
01:29 6.4 °C 5.2 °C 1010.4 hPa Calm   1.6 km/h 92% 0 mm 0 W/m2
01:34 6.4 °C 5.2 °C 1010.4 hPa Calm   1.6 km/h 92% 0 mm 0 W/m2
01:39 6.3 °C 5.2 °C 1010.4 hPa NW 0.3 km/h 3.2 km/h 92% 0 mm 0 W/m2
01:44 6.3 °C 5.1 °C 1010.4 hPa Calm   1.6 km/h 92% 0 mm 0 W/m2
01:49 6.2 °C 5 °C 1010.4 hPa NW 0.8 km/h 3.2 km/h 92% 0 mm 0 W/m2
01:54 6.2 °C 4.9 °C 1010.4 hPa NW 0.6 km/h 1.6 km/h 92% 0 mm 0 W/m2
01:59 6.2 °C 5 °C 1010.4 hPa Calm     92% 0 mm 0 W/m2
02:04 6.2 °C 5 °C 1010.4 hPa Calm     92% 0 mm 0 W/m2
02:09 6.2 °C 5 °C 1010.4 hPa Calm     92% 0 mm 0 W/m2
02:14 6.2 °C 5 °C 1010.4 hPa Calm     92% 0 mm 0 W/m2
02:19 6.2 °C 4.9 °C 1010.4 hPa Calm     92% 0 mm 0 W/m2
02:24 6.1 °C 4.9 °C 1010.4 hPa Calm     92% 0 mm 0 W/m2
02:29 6.1 °C 4.9 °C 1010.4 hPa Calm     92% 0 mm 0 W/m2
02:34 6 °C 4.8 °C 1010.4 hPa NW 1 km/h 3.2 km/h 92% 0 mm 0 W/m2
02:39 6 °C 4.8 °C 1010.4 hPa NW 2.1 km/h 3.2 km/h 92% 0 mm 0 W/m2
02:44 5.9 °C 4.7 °C 1010.4 hPa NW 0.6 km/h 3.2 km/h 92% 0 mm 0 W/m2
02:49 5.9 °C 4.7 °C 1010.7 hPa Calm     92% 0 mm 0 W/m2
02:54 5.8 °C 4.7 °C 1010.7 hPa NW 0.6 km/h 3.2 km/h 92% 0 mm 0 W/m2
02:59 5.7 °C 4.5 °C 1010.7 hPa Calm   1.6 km/h 92% 0 mm 0 W/m2
03:03 5.6 °C 4.4 °C 1010.7 hPa NW 0.8 km/h 3.2 km/h 92% 0 mm 0 W/m2
03:09 5.6 °C 4.4 °C 1010.7 hPa NW 2.1 km/h 3.2 km/h 92% 0 mm 0 W/m2
03:14 5.6 °C 4.4 °C 1010.7 hPa NW 0.8 km/h 3.2 km/h 92% 0 mm 0 W/m2
03:19 5.7 °C 4.4 °C 1010.7 hPa Calm   1.6 km/h 92% 0 mm 0 W/m2
03:24 5.7 °C 4.7 °C 1010.7 hPa Calm     92.8% 0 mm 0 W/m2
03:29 5.7 °C 4.7 °C 1010.7 hPa Calm     93% 0 mm 0 W/m2
03:34 5.6 °C 4.6 °C 1010.7 hPa Calm     93% 0 mm 0 W/m2
03:39 5.6 °C 4.6 °C 1010.4 hPa Calm     93% 0 mm 0 W/m2
03:44 5.4 °C 4.4 °C 1010.7 hPa Calm     93% 0 mm 0 W/m2
03:49 5.3 °C 4.3 °C 1010.4 hPa Calm     93% 0 mm 0 W/m2
03:54 5.3 °C 4.3 °C 1010.4 hPa Calm     93% 0 mm 0 W/m2
03:59 5.3 °C 4.3 °C 1010.4 hPa Calm     93% 0 mm 0 W/m2
04:04 5.3 °C 4.3 °C 1010.4 hPa Calm     93% 0 mm 0 W/m2
04:09 5.3 °C 4.3 °C 1010.4 hPa Calm     93% 0 mm 0 W/m2
04:14 5.3 °C 4.3 °C 1010.4 hPa Calm     93% 0 mm 0 W/m2
04:19 5.2 °C 4.2 °C 1010 hPa Calm     93% 0 mm 0 W/m2
04:24 5.2 °C 4.2 °C 1010 hPa Calm     93% 0 mm 0 W/m2
04:29 5.2 °C 4.2 °C 1010 hPa Calm     93% 0 mm 0 W/m2
04:34 5 °C 4 °C 1010 hPa Calm     93% 0 mm 0 W/m2
04:39 5 °C 4 °C 1010 hPa Calm     93% 0 mm 0 W/m2
04:44 5.1 °C 4.1 °C 1010.4 hPa Calm     93% 0 mm 0 W/m2
04:49 5.1 °C 4.1 °C 1010.4 hPa Calm     93% 0 mm 0 W/m2
04:54 5.1 °C 4.1 °C 1010.4 hPa NW 0.3 km/h 3.2 km/h 93% 0 mm 0 W/m2
04:59 5.1 °C 4.1 °C 1010.4 hPa Calm   1.6 km/h 93% 0 mm 0 W/m2
05:04 5.1 °C 4.1 °C 1010.4 hPa NW 1 km/h 3.2 km/h 93% 0 mm 0 W/m2
05:08 5 °C 4 °C 1010.4 hPa NW 0.3 km/h 3.2 km/h 93% 0 mm 0 W/m2
05:14 5 °C 4 °C 1010.4 hPa NW 0.3 km/h 1.6 km/h 93% 0 mm 0 W/m2
05:19 5 °C 4 °C 1010.4 hPa NW 0.3 km/h 1.6 km/h 93% 0 mm 0 W/m2
05:24 5 °C 4 °C 1010 hPa NW 0.3 km/h 1.6 km/h 93% 0 mm 0 W/m2
05:29 4.9 °C 3.9 °C 1010 hPa Calm   1.6 km/h 93% 0 mm 0 W/m2
05:34 4.9 °C 3.9 °C 1010 hPa Calm     93% 0 mm 0 W/m2
05:39 4.8 °C 3.8 °C 1010 hPa Calm     93% 0 mm 0 W/m2
05:44 4.9 °C 3.9 °C 1010 hPa Calm     93% 0 mm 0 W/m2
05:49 4.9 °C 3.9 °C 1010 hPa Calm     93% 0 mm 0 W/m2
05:54 4.8 °C 3.8 °C 1010.4 hPa Calm     93% 0 mm 0 W/m2
05:59 4.8 °C 3.8 °C 1010 hPa Calm     93% 0 mm 0 W/m2
06:03 4.7 °C 3.7 °C 1010 hPa Calm     93% 0 mm 0 W/m2
06:09 4.7 °C 3.7 °C 1010 hPa Calm     93% 0 mm 0 W/m2
06:14 4.7 °C 3.7 °C 1010 hPa Calm     93% 0 mm 0 W/m2
06:19 4.8 °C 3.8 °C 1010 hPa Calm     93% 0 mm 0 W/m2
06:24 5.1 °C 4.2 °C 1010 hPa Calm     93.8% 0 mm 0 W/m2
06:29 6.2 °C 5.3 °C 1009.7 hPa Calm     94% 0 mm 0 W/m2
06:34 6.6 °C 5.7 °C 1009.7 hPa Calm     94% 0 mm 0 W/m2
06:39 6.7 °C 5.8 °C 1009.7 hPa Calm     94% 0 mm 0 W/m2
06:44 6.5 °C 5.6 °C 1009.7 hPa NW 0.6 km/h 3.2 km/h 94% 0 mm 0 W/m2
06:49 6.4 °C 5.5 °C 1009.4 hPa NW 0.3 km/h 1.6 km/h 94% 0 mm 0 W/m2
06:54 6.3 °C 5.4 °C 1009.4 hPa Calm     94% 0 mm 0 W/m2
06:59 6.4 °C 5.5 °C 1009.4 hPa Calm     94% 0 mm 5 W/m2
07:04 6.9 °C 6.1 °C 1009.4 hPa Calm     94% 0 mm 7 W/m2
07:09 6.8 °C 5.9 °C 1009.4 hPa Calm     94% 0 mm 11 W/m2
07:14 6.6 °C 5.7 °C 1009.4 hPa NW 0.3 km/h 3.2 km/h 94% 0 mm 11 W/m2
07:19 7.5 °C 6.6 °C 1009.7 hPa Calm     94% 0 mm 14 W/m2
07:24 8.1 °C 7.2 °C 1009.4 hPa Calm     94% 0 mm 21 W/m2
07:29 8.1 °C 7.2 °C 1009.4 hPa Calm     94% 0 mm 30 W/m2
07:34 8.1 °C 7.2 °C 1009.4 hPa Calm     94% 0 mm 39 W/m2
07:39 8.1 °C 7.2 °C 1009 hPa Calm     94% 0 mm 44 W/m2
07:44 7.8 °C 6.8 °C 1009 hPa NW 0.8 km/h 3.2 km/h 93.6% 0 mm 44 W/m2
07:49 7.4 °C 6.3 °C 1009 hPa NW 0.6 km/h 3.2 km/h 93% 0 mm 46 W/m2
07:54 7.7 °C 6.6 °C 1009 hPa Calm   3.2 km/h 93% 0 mm 53 W/m2
07:59 7.8 °C 6.7 °C 1009 hPa Calm     93% 0 mm 63 W/m2
08:03 7.4 °C 6.3 °C 1009 hPa Calm     93% 0 mm 84 W/m2
08:09 7.3 °C 6.2 °C 1009 hPa Calm   1.6 km/h 92.4% 0 mm 107 W/m2
08:14 7.4 °C 6.3 °C 1009 hPa NW 0.3 km/h 3.2 km/h 92.6% 0 mm 111 W/m2
08:19 7.7 °C 6.7 °C 1009 hPa NW 0.3 km/h 1.6 km/h 93% 0 mm 109 W/m2
08:24 7.9 °C 6.9 °C 1009 hPa Calm     93% 0 mm 95 W/m2
08:29 8.3 °C 7.2 °C 1008.7 hPa NW 0.3 km/h 1.6 km/h 93% 0 mm 81 W/m2
08:34 8.7 °C 7.6 °C 1008.7 hPa Calm   1.6 km/h 93% 0 mm 69 W/m2
08:39 8.7 °C 7.6 °C 1008.7 hPa Calm     92.2% 0 mm 56 W/m2
08:44 8.7 °C 7.5 °C 1008.7 hPa Calm     92% 0 mm 47 W/m2
08:49 8.8 °C 7.7 °C 1008.7 hPa Calm     92% 0 mm 49 W/m2
08:54 8.8 °C 7.6 °C 1008.7 hPa Calm   1.6 km/h 92% 0 mm 72 W/m2
08:59 8.7 °C 7.5 °C 1008.7 hPa Calm   1.6 km/h 92% 0 mm 100 W/m2
09:04 8.6 °C 7.4 °C 1008.7 hPa NW 0.6 km/h 3.2 km/h 92% 0 mm 118 W/m2
09:09 8.7 °C 7.4 °C 1008.7 hPa NNW 3.5 km/h 8 km/h 92% 0 mm 123 W/m2
09:14 8.9 °C 7.7 °C 1008.7 hPa NNW 1.3 km/h 6.4 km/h 92% 0 mm 116 W/m2
09:19 9.1 °C 7.9 °C 1008.4 hPa NNW 0.6 km/h 4.8 km/h 92% 0 mm 98 W/m2
09:24 9.2 °C 8 °C 1008.4 hPa NNW 1 km/h 4.8 km/h 92% 0 mm 88 W/m2
09:29 9.3 °C 8.1 °C 1008.4 hPa NNW 0.6 km/h 4.8 km/h 92% 0 mm 77 W/m2
09:34 9.6 °C 8.3 °C 1008.4 hPa NNW 0.3 km/h 3.2 km/h 92% 0 mm 77 W/m2
09:39 9.6 °C 8.4 °C 1008.4 hPa NNW 0.3 km/h 3.2 km/h 92% 0 mm 93 W/m2
09:44 9.5 °C 8.3 °C 1008.4 hPa Calm     92% 0 mm 139 W/m2
09:49 9.7 °C 8.5 °C 1008.4 hPa NNW 0.6 km/h 6.4 km/h 92% 0 mm 142 W/m2
09:54 9.9 °C 8.7 °C 1008 hPa SSW 2.9 km/h 9.7 km/h 92% 0 mm 113 W/m2
09:59 10.2 °C 9.1 °C 1008 hPa Calm   9.7 km/h 92% 0 mm 104 W/m2
10:04 10.4 °C 9.2 °C 1008 hPa South 1.3 km/h 4.8 km/h 92% 0 mm 107 W/m2
10:09 10.7 °C 9.5 °C 1008 hPa SW 4.8 km/h 11.3 km/h 91.8% 0 mm 97 W/m2
10:14 11 °C 9.6 °C 1008 hPa SSW 6.6 km/h 11.3 km/h 91% 0 mm 72 W/m2
10:19 11.2 °C 9.8 °C 1007.7 hPa SSW 6.4 km/h 12.9 km/h 90.8% 0 mm 72 W/m2
10:24 11.4 °C 9.8 °C 1008 hPa SSW 5.1 km/h 16.1 km/h 90% 0 mm 88 W/m2
10:29 11.6 °C 9.8 °C 1007.7 hPa SSW 8.4 km/h 16.1 km/h 88.8% 0 mm 88 W/m2
10:34 11.7 °C 9.8 °C 1007.7 hPa SSW 5.5 km/h 14.5 km/h 88% 0 mm 104 W/m2
10:39 11.8 °C 9.8 °C 1007.7 hPa SSW 4.5 km/h 9.7 km/h 87.2% 0 mm 114 W/m2
10:44 11.9 °C 9.8 °C 1007.7 hPa South 5.1 km/h 9.7 km/h 87% 0 mm 123 W/m2
10:49 12.1 °C 9.8 °C 1007.7 hPa SSW 3.2 km/h 9.7 km/h 86.2% 0 mm 144 W/m2
10:54 12.2 °C 9.9 °C 1007.7 hPa SSW 5.5 km/h 11.3 km/h 86% 0 mm 156 W/m2
10:59 12.3 °C 10 °C 1007.7 hPa SSW 3.7 km/h 11.3 km/h 86% 0 mm 172 W/m2
11:04 12.4 °C 10.1 °C 1007.7 hPa SW 7.1 km/h 19.3 km/h 86% 0 mm 172 W/m2
11:08 12.6 °C 10.2 °C 1007.7 hPa WSW 7.2 km/h 19.3 km/h 85.5% 0 mm 169 W/m2
11:14 12.7 °C 10.2 °C 1007.3 hPa SSW 7.2 km/h 12.9 km/h 85% 0 mm 153 W/m2
11:19 12.8 °C 10.3 °C 1007.3 hPa SW 6.4 km/h 12.9 km/h 85% 0 mm 125 W/m2
11:24 12.8 °C 10.3 °C 1007.3 hPa SSW 9.3 km/h 17.7 km/h 85% 0 mm 134 W/m2
11:29 12.9 °C 10.4 °C 1007 hPa SSW 8 km/h 16.1 km/h 84.8% 0 mm 151 W/m2
11:34 13.1 °C 10.4 °C 1007 hPa SSW 7.4 km/h 16.1 km/h 84% 0 mm 171 W/m2
11:39 13.2 °C 10.5 °C 1006.7 hPa SSW 9.3 km/h 20.9 km/h 83.8% 0 mm 202 W/m2
11:44 13.3 °C 10.5 °C 1006.7 hPa South 7.7 km/h 14.5 km/h 83% 0 mm 236 W/m2
11:49 13.4 °C 10.7 °C 1006.7 hPa SSW 9.2 km/h 22.5 km/h 83% 0 mm 232 W/m2
11:54 13.6 °C 10.8 °C 1006.3 hPa SSW 9 km/h 20.9 km/h 83% 0 mm 262 W/m2
11:59 13.8 °C 10.8 °C 1006.3 hPa SSW 7.7 km/h 19.3 km/h 82.4% 0 mm 264 W/m2
12:04 13.9 °C 10.9 °C 1006.3 hPa SW 10 km/h 22.5 km/h 82% 0 mm 216 W/m2
12:09 14.1 °C 11 °C 1006.3 hPa SW 11.3 km/h 22.5 km/h 81.8% 0 mm 197 W/m2
12:14 14.1 °C 10.9 °C 1006.3 hPa SW 13.2 km/h 24.1 km/h 81% 0 mm 186 W/m2
12:19 14.2 °C 11.1 °C 1006.3 hPa South 5.6 km/h 14.5 km/h 81.8% 0 mm 195 W/m2
12:24 14.2 °C 11.2 °C 1006.3 hPa SSW 10.1 km/h 20.9 km/h 82% 0 mm 195 W/m2
12:29 14.3 °C 11.3 °C 1006 hPa SSW 12.2 km/h 29 km/h 82% 0 mm 146 W/m2
12:34 14.3 °C 11.3 °C 1006 hPa SSW 10.6 km/h 20.9 km/h 82% 0 mm 163 W/m2
12:39 14.3 °C 11.3 °C 1006 hPa SSW 10.1 km/h 20.9 km/h 82% 0 mm 162 W/m2
12:44 14.4 °C 11.4 °C 1005.6 hPa South 9.8 km/h 19.3 km/h 82% 0 mm 139 W/m2
12:49 14.4 °C 11.4 °C 1005.6 hPa SSW 8.9 km/h 27.4 km/h 82% 0 mm 139 W/m2
12:54 14.4 °C 11.4 °C 1005.6 hPa SW 14.8 km/h 25.7 km/h 82% 0 mm 123 W/m2
12:59 14.4 °C 11.4 °C 1005.6 hPa SSW 15.4 km/h 25.7 km/h 82% 0 mm 81 W/m2
13:04 14.3 °C 11.5 °C 1005.6 hPa SW 10 km/h 22.5 km/h 83% 0 mm 88 W/m2
13:09 14.2 °C 11.4 °C 1005.6 hPa SW 11.6 km/h 20.9 km/h 83.4% 0.25 mm 90 W/m2
13:14 14.1 °C 11.4 °C 1005.6 hPa SSW 6.9 km/h 17.7 km/h 84% 0.25 mm 76 W/m2
13:19 13.9 °C 11.3 °C 1005.3 hPa SW 13.7 km/h 32.2 km/h 84.2% 0.51 mm 76 W/m2
13:24 13.8 °C 11.3 °C 1005.3 hPa SW 14.2 km/h 32.2 km/h 85% 0.51 mm 74 W/m2
13:29 13.7 °C 11.2 °C 1005.6 hPa SW 13.5 km/h 30.6 km/h 85% 0.51 mm 72 W/m2
13:34 13.7 °C 11.2 °C 1005.6 hPa SSW 13.4 km/h 30.6 km/h 85% 0.76 mm 77 W/m2
13:39 13.4 °C 11.2 °C 1005.3 hPa SSW 8.4 km/h 22.5 km/h 86% 0.76 mm 86 W/m2
13:44 13.3 °C 11.1 °C 1005.3 hPa South 11.6 km/h 20.9 km/h 86% 1.02 mm 86 W/m2
13:49 13.3 °C 11 °C 1005 hPa South 13.4 km/h 27.4 km/h 86% 1.02 mm 88 W/m2
13:54 13.2 °C 10.9 °C 1005 hPa SSW 14.8 km/h 25.7 km/h 86% 1.02 mm 86 W/m2
13:59 13.1 °C 10.8 °C 1005.3 hPa SW 13.8 km/h 37 km/h 86% 1.02 mm 76 W/m2
14:04 12.9 °C 10.6 °C 1005 hPa SW 6.1 km/h 20.9 km/h 85.6% 1.27 mm 65 W/m2
14:09 12.9 °C 10.3 °C 1005 hPa SW 15.8 km/h 27.4 km/h 84.8% 1.02 mm 65 W/m2
14:14 12.9 °C 10.3 °C 1005 hPa SSW 7.2 km/h 27.4 km/h 84% 1.02 mm 67 W/m2
14:19 12.9 °C 10.3 °C 1005 hPa SW 11.3 km/h 20.9 km/h 84.4% 1.02 mm 91 W/m2
14:24 13 °C 10.5 °C 1004.6 hPa SSW 14.2 km/h 22.5 km/h 85% 0.76 mm 91 W/m2
14:29 13.1 °C 10.7 °C 1004.6 hPa SW 8.5 km/h 22.5 km/h 85.6% 0.51 mm 90 W/m2
14:34 13.1 °C 10.8 °C 1004.6 hPa South 9.7 km/h 35.4 km/h 86% 0.51 mm 90 W/m2
14:39 13.1 °C 10.8 °C 1004.6 hPa SW 11.3 km/h 25.7 km/h 86% 0.51 mm 90 W/m2
14:44 13.1 °C 10.9 °C 1004.3 hPa SSW 14.2 km/h 27.4 km/h 86.6% 0.51 mm 84 W/m2
14:49 13.1 °C 11 °C 1004.3 hPa SSW 13.5 km/h 30.6 km/h 87% 0.25 mm 91 W/m2
14:54 13.1 °C 11.1 °C 1003.9 hPa South 16.3 km/h 30.6 km/h 87.4% 0.25 mm 109 W/m2
14:59 13 °C 11.1 °C 1003.9 hPa South 8.5 km/h 25.7 km/h 88% 0.25 mm 109 W/m2
15:04 13 °C 11.2 °C 1003.6 hPa SSW 10.3 km/h 20.9 km/h 88.4% 0 mm 93 W/m2
15:09 13 °C 11.2 °C 1003.6 hPa South 12.7 km/h 29 km/h 89% 0.25 mm 84 W/m2
15:14 13.1 °C 11.3 °C 1003.3 hPa SSW 9.3 km/h 22.5 km/h 89% 0.25 mm 74 W/m2
15:19 13.1 °C 11.3 °C 1002.9 hPa South 8.9 km/h 25.7 km/h 89% 0.51 mm 53 W/m2
15:24 13.1 °C 11.4 °C 1002.9 hPa SSW 12.9 km/h 24.1 km/h 89.8% 0.51 mm 46 W/m2
15:29 13.1 °C 11.5 °C 1002.9 hPa South 10 km/h 29 km/h 90% 0.76 mm 40 W/m2
15:34 13.2 °C 11.6 °C 1002.6 hPa SSW 10.1 km/h 24.1 km/h 90% 1.02 mm 39 W/m2
15:39 13.2 °C 11.6 °C 1002.6 hPa SSW 10.3 km/h 25.7 km/h 90% 1.02 mm 44 W/m2
15:44 13.2 °C 11.6 °C 1002.3 hPa SSE 12.6 km/h 25.7 km/h 90% 1.27 mm 62 W/m2
15:49 13.2 °C 11.6 °C 1001.9 hPa South 10.5 km/h 24.1 km/h 90% 1.52 mm 65 W/m2
15:54 13.2 °C 11.7 °C 1001.9 hPa South 13.5 km/h 29 km/h 90.8% 1.52 mm 60 W/m2
15:59 13.3 °C 11.8 °C 1001.6 hPa South 16.1 km/h 29 km/h 91% 1.52 mm 44 W/m2
16:04 13.3 °C 11.9 °C 1001.6 hPa South 10 km/h 25.7 km/h 91% 1.52 mm 44 W/m2
16:09 13.4 °C 12 °C 1001.6 hPa South 14.2 km/h 30.6 km/h 91% 1.52 mm 37 W/m2
16:14 13.4 °C 12 °C 1001.6 hPa SSW 17.2 km/h 38.6 km/h 91% 1.52 mm 39 W/m2
16:19 13.4 °C 12 °C 1001.6 hPa SSW 13.8 km/h 30.6 km/h 91% 1.52 mm 47 W/m2
16:24 13.4 °C 12 °C 1001.2 hPa South 10 km/h 24.1 km/h 91% 1.27 mm 40 W/m2
16:29 13.4 °C 12 °C 1001.2 hPa SW 14.5 km/h 35.4 km/h 91% 1.02 mm 42 W/m2
16:34 13.4 °C 12 °C 1001.2 hPa SW 17.1 km/h 35.4 km/h 91% 1.02 mm 37 W/m2
16:39 13.4 °C 12 °C 1001.2 hPa SW 12.6 km/h 24.1 km/h 91% 0.76 mm 26 W/m2
16:44 13.5 °C 12.1 °C 1001.2 hPa SSW 11.9 km/h 30.6 km/h 91% 0.76 mm 37 W/m2
16:49 13.5 °C 12.1 °C 1001.2 hPa SSW 16.4 km/h 32.2 km/h 91% 0.51 mm 49 W/m2
16:54 13.7 °C 12.2 °C 1001.2 hPa SSW 17.1 km/h 33.8 km/h 91% 0.51 mm 49 W/m2
16:59 13.7 °C 12.3 °C 1000.9 hPa SSW 19.6 km/h 33.8 km/h 91% 0.51 mm 51 W/m2
17:04 13.7 °C 12.3 °C 1000.9 hPa SSW 15.8 km/h 33.8 km/h 91% 0.51 mm 33 W/m2
17:09 13.8 °C 12.4 °C 1000.6 hPa South 14.5 km/h 29 km/h 91% 0.51 mm 33 W/m2
17:14 13.8 °C 12.4 °C 1000.6 hPa South 11.3 km/h 30.6 km/h 91% 0.51 mm 35 W/m2
17:19 13.8 °C 12.4 °C 1000.2 hPa South 13.2 km/h 30.6 km/h 91.2% 0.51 mm 33 W/m2
17:24 13.9 °C 12.6 °C 1000.2 hPa SSW 13.8 km/h 27.4 km/h 91.8% 0.51 mm 19 W/m2
17:29 13.9 °C 12.6 °C 1000.2 hPa SSW 12.6 km/h 33.8 km/h 92% 0.51 mm 19 W/m2
17:34 13.9 °C 12.6 °C 1000.2 hPa SSW 18.3 km/h 30.6 km/h 92% 0.76 mm 23 W/m2
17:39 14.1 °C 12.8 °C 999.9 hPa SSW 13.2 km/h 35.4 km/h 92% 0.51 mm 18 W/m2
17:44 14.1 °C 12.8 °C 999.9 hPa SSW 12.7 km/h 35.4 km/h 92% 0.51 mm 16 W/m2
17:49 14.2 °C 12.9 °C 999.9 hPa SSW 15.1 km/h 30.6 km/h 92% 0.51 mm 14 W/m2
17:54 14.2 °C 12.9 °C 999.9 hPa SSW 11.6 km/h 27.4 km/h 92% 0.51 mm 9 W/m2
17:59 14.2 °C 12.9 °C 999.5 hPa SSW 13.2 km/h 24.1 km/h 92% 0.51 mm 11 W/m2
18:04 14.2 °C 12.9 °C 999.5 hPa SSW 9 km/h 24.1 km/h 92% 0.76 mm 12 W/m2
18:09 14.2 °C 12.9 °C 999.2 hPa SSW 12.1 km/h 27.4 km/h 92% 0.76 mm 9 W/m2
18:14 14.3 °C 13 °C 999.2 hPa SSW 16.3 km/h 30.6 km/h 92% 0.51 mm 11 W/m2
18:19 14.3 °C 13 °C 998.9 hPa SW 12.9 km/h 22.5 km/h 92% 0.76 mm 7 W/m2
18:24 14.3 °C 13 °C 998.9 hPa SSW 11.9 km/h 29 km/h 92% 0.51 mm 9 W/m2
18:29 14.3 °C 13 °C 998.9 hPa SSW 12.9 km/h 29 km/h 92% 0.76 mm 7 W/m2
18:34 14.3 °C 13.1 °C 999.2 hPa SW 14.8 km/h 30.6 km/h 92% 0.76 mm 5 W/m2
18:39 14.4 °C 13.1 °C 998.9 hPa SSW 17.7 km/h 30.6 km/h 92% 0.51 mm 9 W/m2
18:44 14.4 °C 13.1 °C 998.9 hPa SW 20.3 km/h 37 km/h 92% 0.51 mm 7 W/m2
18:49 14.5 °C 13.2 °C 998.9 hPa SSW 11.3 km/h 33.8 km/h 92% 0.51 mm 0 W/m2
18:54 14.5 °C 13.2 °C 998.5 hPa SW 19.3 km/h 29 km/h 92% 0.51 mm 0 W/m2
18:59 14.5 °C 13.2 °C 998.9 hPa SW 12.1 km/h 29 km/h 92% 0.51 mm 0 W/m2
19:04 14.5 °C 13.2 °C 998.9 hPa SW 12.6 km/h 20.9 km/h 92% 0.51 mm 0 W/m2
19:09 14.6 °C 13.3 °C 998.5 hPa WSW 11.9 km/h 30.6 km/h 92.2% 0.51 mm 0 W/m2
19:14 14.6 °C 13.5 °C 998.5 hPa SW 13.2 km/h 29 km/h 93% 0.51 mm 0 W/m2
19:19 14.6 °C 13.5 °C 998.5 hPa SSW 14 km/h 22.5 km/h 93% 0.51 mm 0 W/m2
19:24 14.7 °C 13.6 °C 998.5 hPa WSW 10.9 km/h 22.5 km/h 93% 0.51 mm 0 W/m2
19:29 14.7 °C 13.6 °C 998.5 hPa SSW 15.1 km/h 29 km/h 93% 0.51 mm 0 W/m2
19:34 14.8 °C 13.7 °C 998.5 hPa SSW 13.2 km/h 25.7 km/h 93% 0.51 mm 0 W/m2
19:39 14.8 °C 13.7 °C 998.5 hPa SW 16.1 km/h 22.5 km/h 93% 0.51 mm 0 W/m2
19:44 14.9 °C 13.8 °C 998.5 hPa SW 11.3 km/h 20.9 km/h 93% 0.51 mm 0 W/m2
19:49 14.9 °C 13.8 °C 998.5 hPa SW 14.5 km/h 25.7 km/h 93% 0.51 mm 0 W/m2
19:54 15.1 °C 13.9 °C 998.5 hPa SW 11.9 km/h 29 km/h 93% 0.51 mm 0 W/m2
19:59 15.2 °C 14.1 °C 998.5 hPa SW 12.6 km/h 29 km/h 93% 0.51 mm 0 W/m2
20:04 15.2 °C 14.1 °C 998.5 hPa WSW 13.5 km/h 25.7 km/h 93% 0.51 mm 0 W/m2
20:09 15.2 °C 14.1 °C 998.5 hPa WSW 12.9 km/h 24.1 km/h 93% 0.51 mm 0 W/m2
20:14 15.2 °C 14.1 °C 998.5 hPa SW 13.5 km/h 27.4 km/h 93% 0.51 mm 0 W/m2
20:19 15.2 °C 14.1 °C 998.5 hPa West 14.2 km/h 24.1 km/h 93% 0.51 mm 0 W/m2
20:24 15.2 °C 14.1 °C 998.9 hPa West 11.3 km/h 24.1 km/h 93% 0.51 mm 0 W/m2
20:29 15.2 °C 14.1 °C 998.9 hPa WNW 9.8 km/h 22.5 km/h 93% 0.51 mm 0 W/m2
20:34 15.2 °C 14.1 °C 999.2 hPa West 14.2 km/h 29 km/h 93% 0.51 mm 0 W/m2
20:39 15.2 °C 14.1 °C 999.2 hPa West 16.1 km/h 29 km/h 93% 0.51 mm 0 W/m2
20:44 15.2 °C 14.1 °C 998.9 hPa West 11.6 km/h 25.7 km/h 93% 0.51 mm 0 W/m2
20:49 15.2 °C 14.1 °C 999.2 hPa West 10.1 km/h 20.9 km/h 93% 0.51 mm 0 W/m2
20:54 15.2 °C 14.1 °C 999.2 hPa West 10 km/h 19.3 km/h 93% 0.51 mm 0 W/m2
20:59 15.2 °C 14.1 °C 999.2 hPa West 8.2 km/h 17.7 km/h 93% 0.51 mm 0 W/m2
21:04 15.2 °C 14.1 °C 999.2 hPa West 7.4 km/h 19.3 km/h 93% 0.51 mm 0 W/m2
21:09 15.2 °C 14.1 °C 999.5 hPa West 10.9 km/h 19.3 km/h 93% 0.51 mm 0 W/m2
21:14 15.2 °C 14.1 °C 999.2 hPa West 9 km/h 19.3 km/h 93% 0.51 mm 0 W/m2
21:19 15.1 °C 14 °C 999.2 hPa West 9 km/h 16.1 km/h 93% 0.51 mm 0 W/m2
21:24 15.1 °C 14 °C 999.2 hPa West 7.1 km/h 17.7 km/h 93% 0.51 mm 0 W/m2
21:29 15.1 °C 14 °C 999.2 hPa West 8.4 km/h 17.7 km/h 93% 0.51 mm 0 W/m2
21:34 15.1 °C 14 °C 999.5 hPa West 13.8 km/h 24.1 km/h 93% 0.25 mm 0 W/m2
21:39 15 °C 13.9 °C 999.5 hPa West 11.3 km/h 17.7 km/h 93% 0 mm 0 W/m2
21:44 15 °C 13.9 °C 999.5 hPa West 9.8 km/h 24.1 km/h 93% 0 mm 0 W/m2
21:49 14.9 °C 13.8 °C 999.5 hPa West 8.7 km/h 17.7 km/h 93% 0 mm 0 W/m2
21:54 14.9 °C 13.8 °C 999.5 hPa West 9.7 km/h 17.7 km/h 93% 0 mm 0 W/m2
21:59 14.9 °C 13.8 °C 999.5 hPa West 10.9 km/h 19.3 km/h 93% 0 mm 0 W/m2
22:04 14.9 °C 13.8 °C 999.5 hPa West 10.5 km/h 27.4 km/h 93% 0 mm 0 W/m2
22:09 14.9 °C 13.8 °C 999.5 hPa WNW 11.3 km/h 27.4 km/h 93% 0 mm 0 W/m2
22:14 14.9 °C 13.8 °C 999.5 hPa West 16.4 km/h 24.1 km/h 93% 0 mm 0 W/m2
22:19 14.9 °C 13.8 °C 999.5 hPa West 11.4 km/h 25.7 km/h 93% 0 mm 0 W/m2
22:24 14.9 °C 13.7 °C 999.5 hPa West 13.7 km/h 24.1 km/h 92.8% 0 mm 0 W/m2
22:29 14.8 °C 13.5 °C 999.5 hPa West 9 km/h 16.1 km/h 92% 0 mm 0 W/m2
22:34 14.8 °C 13.5 °C 999.5 hPa West 8.9 km/h 19.3 km/h 92% 0 mm 0 W/m2
22:39 14.7 °C 13.4 °C 999.5 hPa West 13.8 km/h 17.7 km/h 92% 0 mm 0 W/m2
22:44 14.7 °C 13.4 °C 999.5 hPa West 8.5 km/h 19.3 km/h 92% 0 mm 0 W/m2
22:49 14.7 °C 13.4 °C 999.5 hPa WNW 12.1 km/h 16.1 km/h 92% 0 mm 0 W/m2
22:54 14.7 °C 13.4 °C 999.9 hPa West 10.9 km/h 20.9 km/h 92% 0 mm 0 W/m2
22:59 14.7 °C 13.4 °C 999.9 hPa West 6.9 km/h 14.5 km/h 92% 0 mm 0 W/m2
23:04 14.6 °C 13.3 °C 999.9 hPa WNW 9.3 km/h 17.7 km/h 92% 0 mm 0 W/m2
23:09 14.6 °C 13.3 °C 999.9 hPa WNW 9 km/h 14.5 km/h 92% 0 mm 0 W/m2
23:14 14.6 °C 13.3 °C 999.9 hPa West 7.9 km/h 14.5 km/h 92% 0 mm 0 W/m2
23:19 14.5 °C 13.2 °C 999.9 hPa West 10 km/h 17.7 km/h 92% 0 mm 0 W/m2
23:23 14.4 °C 13.1 °C 1000.2 hPa West 13 km/h 17.7 km/h 92% 0 mm 0 W/m2
23:29 14.4 °C 13.1 °C 1000.2 hPa West 9.7 km/h 20.9 km/h 92% 0 mm 0 W/m2
23:34 14.4 °C 13.1 °C 1000.2 hPa WNW 7.4 km/h 17.7 km/h 92% 0 mm 0 W/m2
23:39 14.3 °C 13.1 °C 1000.2 hPa West 10.3 km/h 16.1 km/h 92% 0 mm 0 W/m2
23:44 14.2 °C 12.9 °C 1000.2 hPa West 10.3 km/h 16.1 km/h 91.4% 0 mm 0 W/m2
23:49 14.2 °C 12.8 °C 1000.2 hPa West 10.8 km/h 19.3 km/h 91% 0 mm 0 W/m2
23:54 14.2 °C 12.8 °C 1000.6 hPa West 12.2 km/h 19.3 km/h 91% 0 mm 0 W/m2
23:59 14.1 °C 12.7 °C 1000.6 hPa West 9.7 km/h 16.1 km/h 91% 0 mm 0 W/m2
Bath Spa Weather
Compliments of Weather Underground - 2 mb